Time;durP1;ratioP1;P1;durP2;ratioP2;P2;SDS_P1;SDS_P2;PMS_P1;PMS_P2;Temp;Humidity;BMP_temperature;BMP_pressure;BME280_temperature;BME280_humidity;BME280_pressure;Samples;Min_cycle;Max_cycle;Signal;HPM_P1;HPM_P2
2023/11/25 00:00:57;;;;;;;10.90;6.40;;;;;;;4.32;100.00;98515.45;109437;1251;74655;-61
2023/11/25 00:03:25;;;;;;;8.70;5.20;;;;;;;4.32;100.00;98503.77;109373;1251;65628;-61
2023/11/25 00:05:54;;;;;;;10.10;5.50;;;;;;;4.32;100.00;98494.23;109359;1251;72802;-61
2023/11/25 00:08:21;;;;;;;13.50;5.20;;;;;;;4.33;100.00;98499.23;109374;1252;59646;-61
2023/11/25 00:10:49;;;;;;;8.70;5.10;;;;;;;4.33;100.00;98496.24;109427;1251;59097;-61
2023/11/25 00:13:17;;;;;;;9.00;5.10;;;;;;;4.34;100.00;98489.11;109436;1251;74725;-61
2023/11/25 00:15:45;;;;;;;7.70;4.80;;;;;;;4.33;100.00;98482.96;109365;1251;66903;-61
2023/11/25 00:18:12;;;;;;;6.90;4.30;;;;;;;4.30;100.00;98486.92;109409;1250;71438;-62
2023/11/25 00:20:40;;;;;;;7.90;4.70;;;;;;;4.26;100.00;98483.01;109459;1252;59670;-61
2023/11/25 00:23:08;;;;;;;9.80;4.70;;;;;;;4.21;100.00;98479.16;109417;1251;60144;-61
2023/11/25 00:25:35;;;;;;;8.90;4.30;;;;;;;4.12;100.00;98482.92;109391;1250;73442;-61
2023/11/25 00:28:05;;;;;;;8.20;4.90;;;;;;;4.02;100.00;98486.92;109424;1251;67409;-61
2023/11/25 00:30:33;;;;;;;7.60;4.70;;;;;;;3.90;100.00;98483.52;109284;1251;71413;-61
2023/11/25 00:33:03;;;;;;;7.00;4.00;;;;;;;3.80;100.00;98492.27;109382;1251;59639;-61
2023/11/25 00:35:31;;;;;;;9.00;4.60;;;;;;;3.70;100.00;98506.70;109375;1251;58982;-62
2023/11/25 00:37:59;;;;;;;7.10;4.20;;;;;;;3.60;100.00;98515.04;109444;1251;74742;-61
2023/11/25 00:40:28;;;;;;;8.80;4.50;;;;;;;3.52;100.00;98520.18;109428;1250;67015;-61
2023/11/25 00:42:56;;;;;;;7.50;4.30;;;;;;;3.46;100.00;98517.80;109392;1251;71470;-61
2023/11/25 00:45:26;;;;;;;7.90;4.30;;;;;;;3.42;100.00;98509.67;109281;1251;60906;-61
2023/11/25 00:47:56;;;;;;;7.70;3.90;;;;;;;3.37;100.00;98509.26;109376;1252;59208;-61
2023/11/25 00:50:24;;;;;;;7.50;4.50;;;;;;;3.31;100.00;98515.38;109503;1251;74683;-61
2023/11/25 00:52:53;;;;;;;6.80;3.90;;;;;;;3.28;100.00;98512.83;109321;1251;66844;-61
2023/11/25 00:55:21;;;;;;;8.70;4.70;;;;;;;3.22;100.00;98508.47;109334;1251;72724;-61
2023/11/25 00:57:48;;;;;;;7.30;4.00;;;;;;;3.14;100.00;98512.02;109388;1251;60369;-61
2023/11/25 01:00:16;;;;;;;6.30;3.30;;;;;;;3.07;100.00;98514.80;109384;1251;60254;-61
2023/11/25 01:02:44;;;;;;;6.00;3.60;;;;;;;3.02;100.00;98519.62;109420;1251;73469;-61
2023/11/25 01:05:13;;;;;;;6.30;3.50;;;;;;;2.99;100.00;98518.94;109539;1251;66851;-61
2023/11/25 01:07:40;;;;;;;8.40;4.40;;;;;;;2.96;100.00;98521.23;109430;1251;71117;-61
2023/11/25 01:10:09;;;;;;;7.80;4.00;;;;;;;2.95;100.00;98523.08;109371;1252;61617;-61
2023/11/25 01:12:37;;;;;;;6.60;4.00;;;;;;;2.95;100.00;98523.70;109441;1251;60592;-61
2023/11/25 01:15:05;;;;;;;6.30;3.30;;;;;;;2.96;100.00;98525.48;109444;1250;74850;-61
2023/11/25 01:17:33;;;;;;;7.80;4.00;;;;;;;2.98;100.00;98525.77;109386;1251;65973;-61
2023/11/25 01:20:01;;;;;;;8.10;4.00;;;;;;;3.01;100.00;98530.92;109292;1251;72557;-61
2023/11/25 01:22:29;;;;;;;7.40;4.50;;;;;;;3.03;100.00;98527.73;109434;1251;59451;-65
2023/11/25 01:24:56;;;;;;;8.70;4.50;;;;;;;3.06;100.00;98526.91;109463;1251;59090;-61
2023/11/25 01:27:24;;;;;;;8.70;4.80;;;;;;;3.09;100.00;98529.85;109422;1251;73427;-62
2023/11/25 01:29:51;;;;;;;7.70;5.00;;;;;;;3.08;100.00;98538.31;109387;1250;66904;-62
2023/11/25 01:32:19;;;;;;;7.90;4.70;;;;;;;3.07;100.00;98548.71;109409;1251;72736;-62
2023/11/25 01:34:47;;;;;;;7.90;4.50;;;;;;;3.08;100.00;98562.87;109448;1251;59946;-61
2023/11/25 01:37:17;;;;;;;9.40;5.30;;;;;;;3.11;100.00;98568.34;109383;1250;59343;-62
2023/11/25 01:39:46;;;;;;;8.70;4.50;;;;;;;3.15;100.00;98569.19;109373;1251;75326;-62
2023/11/25 01:42:14;;;;;;;10.20;5.40;;;;;;;3.20;100.00;98572.54;109443;1250;65615;-61
2023/11/25 01:44:42;;;;;;;8.30;4.90;;;;;;;3.24;100.00;98575.88;109460;1251;71731;-61
2023/11/25 01:47:11;;;;;;;8.90;5.50;;;;;;;3.25;100.00;98580.87;109244;1251;59742;-62
2023/11/25 01:49:40;;;;;;;10.70;5.60;;;;;;;3.24;100.00;98579.23;109260;1251;61092;-61
2023/11/25 01:52:08;;;;;;;10.00;5.90;;;;;;;3.27;100.00;98579.13;109442;1251;73298;-61
2023/11/25 01:54:36;;;;;;;9.00;5.40;;;;;;;3.28;100.00;98581.23;109413;1250;65988;-61
2023/11/25 01:57:04;;;;;;;9.80;6.50;;;;;;;3.25;100.00;98582.88;109270;1250;72789;-61
2023/11/25 01:59:32;;;;;;;10.10;6.30;;;;;;;3.27;100.00;98583.05;109278;1251;61068;-61
2023/11/25 02:02:04;;;;;;;10.60;6.40;;;;;;;3.29;100.00;98586.95;109291;1251;60074;-62
2023/11/25 02:04:33;;;;;;;11.00;6.00;;;;;;;3.32;100.00;98588.95;109405;1251;73373;-61
2023/11/25 02:07:01;;;;;;;10.70;6.20;;;;;;;3.36;100.00;98589.31;109459;1251;67540;-62
2023/11/25 02:09:28;;;;;;;9.60;6.30;;;;;;;3.38;100.00;98589.23;109368;1252;72764;-61
2023/11/25 02:11:57;;;;;;;10.30;6.40;;;;;;;3.44;100.00;98587.70;109397;1251;60111;-62
2023/11/25 02:14:25;;;;;;;10.60;6.20;;;;;;;3.49;100.00;98587.20;109300;1251;58944;-62
2023/11/25 02:16:54;;;;;;;9.60;5.90;;;;;;;3.51;100.00;98578.34;109459;1251;73470;-61
2023/11/25 02:19:24;;;;;;;11.40;7.20;;;;;;;3.52;100.00;98576.69;109252;1251;66852;-63
2023/11/25 02:21:52;;;;;;;8.90;6.60;;;;;;;3.52;100.00;98575.42;109284;1251;72782;-63
2023/11/25 02:24:20;;;;;;;10.40;5.90;;;;;;;3.52;100.00;98584.45;109383;1250;59419;-63
2023/11/25 02:26:57;;;;;;;10.00;6.40;;;;;;;3.51;100.00;98596.69;109412;1251;60107;-63
2023/11/25 02:29:25;;;;;;;9.60;5.90;;;;;;;3.51;100.00;98599.06;109267;1251;74770;-63
2023/11/25 02:31:53;;;;;;;10.40;6.90;;;;;;;3.51;100.00;98610.40;109349;1251;66866;-61
2023/11/25 02:34:20;;;;;;;10.50;6.50;;;;;;;3.52;100.00;98623.09;109384;1250;72738;-61
2023/11/25 02:36:48;;;;;;;10.70;6.80;;;;;;;3.51;100.00;98630.73;109348;1250;59659;-61
2023/11/25 02:39:18;;;;;;;9.60;5.80;;;;;;;3.50;100.00;98637.93;109374;1251;59350;-62
2023/11/25 02:41:49;;;;;;;12.10;7.20;;;;;;;3.46;100.00;98643.52;109403;1251;74783;-61
2023/11/25 02:44:17;;;;;;;10.60;6.30;;;;;;;3.43;100.00;98651.39;109297;1251;65700;-61
2023/11/25 02:46:45;;;;;;;11.20;6.70;;;;;;;3.41;100.00;98652.32;109369;1251;71450;-61
2023/11/25 02:49:13;;;;;;;11.90;6.60;;;;;;;3.40;100.00;98653.99;109241;1251;59134;-63
2023/11/25 02:51:48;;;;;;;11.00;7.10;;;;;;;3.37;100.00;98658.27;109404;1252;60104;-63
2023/11/25 02:54:17;;;;;;;13.10;7.20;;;;;;;3.35;100.00;98660.08;109325;1251;74725;-63
2023/11/25 02:56:45;;;;;;;10.70;6.30;;;;;;;3.34;100.00;98659.66;109507;1250;65650;-63
2023/11/25 02:59:13;;;;;;;11.70;7.60;;;;;;;3.32;100.00;98653.88;109361;1251;72708;-63
2023/11/25 03:01:48;;;;;;;13.00;6.10;;;;;;;3.28;100.00;98658.27;109367;1251;60922;-63
2023/11/25 03:04:19;;;;;;;10.90;7.20;;;;;;;3.25;100.00;98661.61;109417;1251;59124;-63
2023/11/25 03:06:48;;;;;;;11.20;6.80;;;;;;;3.22;100.00;98670.36;109233;1251;73406;-63
2023/11/25 03:09:15;;;;;;;13.60;7.60;;;;;;;3.20;100.00;98669.90;109460;1251;65647;-65
2023/11/25 03:11:43;;;;;;;11.70;7.20;;;;;;;3.17;100.00;98663.56;109470;1251;71469;-63
2023/11/25 03:14:11;;;;;;;9.50;6.20;;;;;;;3.16;100.00;98663.31;109285;1251;59828;-64
2023/11/25 03:16:38;;;;;;;11.00;6.20;;;;;;;3.14;100.00;98666.85;109409;1251;60279;-63
2023/11/25 03:19:09;;;;;;;11.30;6.60;;;;;;;3.12;100.00;98672.00;109414;1251;75258;-63
2023/11/25 03:21:36;;;;;;;14.60;7.00;;;;;;;3.12;100.00;98667.84;109400;1250;65965;-64
2023/11/25 03:24:07;;;;;;;11.90;7.60;;;;;;;3.10;100.00;98669.94;109400;1250;71270;-63
2023/11/25 03:26:35;;;;;;;11.80;7.10;;;;;;;3.08;100.00;98668.97;109438;1250;59365;-63
2023/11/25 03:29:03;;;;;;;11.70;7.70;;;;;;;3.06;100.00;98678.04;109449;1250;59010;-63
2023/11/25 03:31:33;;;;;;;11.70;7.00;;;;;;;3.04;100.00;98681.06;109462;1250;74723;-63
2023/11/25 03:34:00;;;;;;;11.70;6.50;;;;;;;3.03;100.00;98684.64;109384;1251;65766;-63
2023/11/25 03:36:28;;;;;;;14.80;8.80;;;;;;;3.00;100.00;98679.45;109394;1251;71806;-63
2023/11/25 03:38:55;;;;;;;12.00;7.60;;;;;;;2.97;100.00;98679.64;109414;1254;59245;-63
2023/11/25 03:41:23;;;;;;;12.40;7.30;;;;;;;2.94;100.00;98684.05;109444;1250;60094;-63
2023/11/25 03:43:51;;;;;;;14.60;7.70;;;;;;;2.92;100.00;98684.75;109420;1250;74737;-63
2023/11/25 03:46:19;;;;;;;14.10;7.80;;;;;;;2.91;100.00;98688.48;109431;1250;66957;-63
2023/11/25 03:48:46;;;;;;;13.20;8.20;;;;;;;2.90;100.00;98694.77;109371;1252;72754;-63
2023/11/25 03:51:15;;;;;;;12.80;8.50;;;;;;;2.89;100.00;98690.75;109420;1251;59340;-64
2023/11/25 03:53:43;;;;;;;14.80;8.20;;;;;;;2.87;100.00;98694.63;109436;1250;58931;-63
2023/11/25 03:56:13;;;;;;;16.10;9.00;;;;;;;2.86;100.00;98700.42;109423;1250;74771;-63
2023/11/25 03:58:41;;;;;;;12.00;7.00;;;;;;;2.85;100.00;98702.92;109502;1251;66976;-63
2023/11/25 04:01:09;;;;;;;13.60;8.20;;;;;;;2.83;100.00;98702.35;109431;1250;71378;-63
2023/11/25 04:03:36;;;;;;;13.10;8.70;;;;;;;2.81;100.00;98706.14;109451;1250;59928;-64
2023/11/25 04:06:04;;;;;;;15.20;8.80;;;;;;;2.80;100.00;98710.05;109421;1251;58938;-63
2023/11/25 04:08:32;;;;;;;13.60;9.10;;;;;;;2.78;100.00;98709.52;109405;1251;74207;-63
2023/11/25 04:11:00;;;;;;;13.80;8.20;;;;;;;2.77;100.00;98714.69;109444;1250;65283;-63
2023/11/25 04:13:28;;;;;;;14.20;8.40;;;;;;;2.75;100.00;98713.17;109266;1250;72694;-63
2023/11/25 04:15:56;;;;;;;17.90;8.30;;;;;;;2.73;100.00;98715.95;109431;1251;58986;-63
2023/11/25 04:18:24;;;;;;;13.80;8.70;;;;;;;2.71;100.00;98715.20;109371;1251;59061;-63
2023/11/25 04:20:52;;;;;;;14.60;8.90;;;;;;;2.66;100.00;98714.58;109416;1250;74747;-63
2023/11/25 04:23:22;;;;;;;15.10;8.40;;;;;;;2.64;100.00;98720.11;109437;1251;66274;-63
2023/11/25 04:25:49;;;;;;;15.40;8.90;;;;;;;2.62;100.00;98721.59;109403;1251;71415;-63
2023/11/25 04:28:17;;;;;;;14.10;8.80;;;;;;;2.58;100.00;98728.70;109254;1251;60191;-63
2023/11/25 04:30:45;;;;;;;13.70;8.80;;;;;;;2.55;100.00;98738.73;109452;1251;58922;-63
2023/11/25 04:33:14;;;;;;;14.10;9.30;;;;;;;2.52;100.00;98746.08;109445;1251;74741;-63
2023/11/25 04:35:41;;;;;;;14.30;9.60;;;;;;;2.47;100.00;98745.77;109414;1250;66925;-64
2023/11/25 04:38:10;;;;;;;13.50;8.20;;;;;;;2.42;100.00;98749.17;109383;1251;72515;-64
2023/11/25 04:40:37;;;;;;;12.60;8.40;;;;;;;2.39;100.00;98753.14;109441;1252;59361;-63
2023/11/25 04:43:05;;;;;;;14.00;8.70;;;;;;;2.37;100.00;98757.84;109488;1250;60173;-63
2023/11/25 04:45:33;;;;;;;11.40;8.10;;;;;;;2.33;100.00;98759.23;109423;1250;74633;-64
2023/11/25 04:48:01;;;;;;;13.00;8.30;;;;;;;2.31;100.00;98761.72;109395;1251;67110;-64
2023/11/25 04:50:29;;;;;;;12.90;7.70;;;;;;;2.29;100.00;98766.04;109407;1251;72755;-63
2023/11/25 04:52:57;;;;;;;13.30;8.00;;;;;;;2.28;100.00;98761.92;109448;1251;59451;-64
2023/11/25 04:55:27;;;;;;;13.50;8.80;;;;;;;2.25;100.00;98759.81;109414;1250;59071;-63
2023/11/25 04:57:56;;;;;;;15.40;9.20;;;;;;;2.23;100.00;98764.13;109408;1250;73473;-64
2023/11/25 05:00:24;;;;;;;12.90;8.10;;;;;;;2.19;100.00;98767.95;109458;1252;65628;-64
2023/11/25 05:02:51;;;;;;;12.90;8.10;;;;;;;2.16;100.00;98771.70;109267;1251;71465;-64
2023/11/25 05:05:19;;;;;;;15.70;7.50;;;;;;;2.14;100.00;98774.81;109427;1250;60994;-64
2023/11/25 05:07:47;;;;;;;14.00;8.30;;;;;;;2.12;100.00;98780.52;109453;1250;60548;-64
2023/11/25 05:10:15;;;;;;;13.00;7.80;;;;;;;2.10;100.00;98780.42;109381;1252;73446;-64
2023/11/25 05:12:44;;;;;;;13.90;8.10;;;;;;;2.09;100.00;98780.34;109450;1250;66001;-64
2023/11/25 05:15:12;;;;;;;13.50;8.20;;;;;;;2.08;100.00;98787.30;109407;1250;72153;-63
2023/11/25 05:17:40;;;;;;;11.80;7.40;;;;;;;2.07;100.00;98788.11;109427;1250;61054;-63
2023/11/25 05:20:10;;;;;;;11.20;6.80;;;;;;;2.06;100.00;98790.30;109376;1251;60170;-63
2023/11/25 05:22:37;;;;;;;12.10;7.50;;;;;;;2.05;100.00;98797.02;109430;1250;73100;-64
2023/11/25 05:25:05;;;;;;;13.10;7.60;;;;;;;2.06;100.00;98803.16;109422;1252;67133;-63
2023/11/25 05:27:33;;;;;;;11.60;7.10;;;;;;;2.07;100.00;98808.15;109449;1250;71477;-64
2023/11/25 05:30:00;;;;;;;12.70;8.40;;;;;;;2.08;100.00;98809.95;109341;1250;59667;-63
2023/11/25 05:32:28;;;;;;;12.10;7.40;;;;;;;2.09;100.00;98813.08;109430;1251;60099;-63
2023/11/25 05:34:56;;;;;;;12.20;7.20;;;;;;;2.10;100.00;98811.40;109298;1250;74678;-63
2023/11/25 05:37:24;;;;;;;15.10;8.90;;;;;;;2.13;100.00;98811.13;109433;1251;65734;-64
2023/11/25 05:39:51;;;;;;;13.00;8.40;;;;;;;2.14;100.00;98815.77;109382;1252;74683;-63
2023/11/25 05:42:24;;;;;;;13.50;8.80;;;;;;;2.16;100.00;98820.52;109450;1253;59084;-64
2023/11/25 05:44:52;;;;;;;15.80;8.90;;;;;;;2.20;100.00;98822.36;109434;1250;58885;-63
2023/11/25 05:47:21;;;;;;;14.80;8.90;;;;;;;2.23;100.00;98821.75;109448;1250;73197;-64
2023/11/25 05:49:48;;;;;;;18.40;9.40;;;;;;;2.27;100.00;98822.73;109196;1251;215759;-64
2023/11/25 05:52:16;;;;;;;14.30;8.90;;;;;;;2.31;100.00;98818.77;109412;1251;71790;-62
2023/11/25 05:54:44;;;;;;;15.00;8.70;;;;;;;2.36;100.00;98818.75;109433;1251;59400;-62
2023/11/25 05:57:12;;;;;;;14.10;8.40;;;;;;;2.41;100.00;98810.02;109460;1251;58986;-62
2023/11/25 05:59:41;;;;;;;12.20;7.00;;;;;;;2.45;100.00;98810.59;109380;1251;74730;-61
2023/11/25 06:02:08;;;;;;;10.00;6.10;;;;;;;2.50;100.00;98811.95;109412;1250;65767;-61
2023/11/25 06:04:36;;;;;;;13.40;7.00;;;;;;;2.53;100.00;98804.73;109411;1250;72897;-61
2023/11/25 06:07:04;;;;;;;11.90;6.50;;;;;;;2.57;100.00;98815.98;109457;1251;59663;-61
2023/11/25 06:09:32;;;;;;;10.70;6.90;;;;;;;2.62;100.00;98817.83;109413;1250;60125;-61
2023/11/25 06:12:00;;;;;;;10.40;6.30;;;;;;;2.67;100.00;98821.23;109464;1250;73977;-62
2023/11/25 06:14:28;;;;;;;9.20;6.20;;;;;;;2.74;100.00;98825.17;109425;1252;65900;-61
2023/11/25 06:16:57;;;;;;;13.00;7.80;;;;;;;2.81;100.00;98826.59;109471;1251;72760;-61
2023/11/25 06:19:24;;;;;;;15.90;6.90;;;;;;;2.89;100.00;98832.77;109409;1251;61010;-61
2023/11/25 06:21:54;;;;;;;9.40;6.40;;;;;;;2.99;100.00;98837.35;109452;1251;60082;-61
2023/11/25 06:24:22;;;;;;;9.70;6.20;;;;;;;3.11;100.00;98837.48;109428;1250;73431;-61
2023/11/25 06:26:50;;;;;;;11.60;6.40;;;;;;;3.25;100.00;98844.89;109444;1251;66310;-61
2023/11/25 06:29:17;;;;;;;10.00;5.80;;;;;;;3.38;100.00;98838.91;109391;1253;72790;-61
2023/11/25 06:31:46;;;;;;;11.30;6.20;;;;;;;3.52;100.00;98839.42;109421;1251;59655;-61
2023/11/25 06:34:13;;;;;;;10.50;6.80;;;;;;;3.66;100.00;98842.36;109498;1251;58906;-61
2023/11/25 06:36:44;;;;;;;11.30;5.90;;;;;;;3.80;100.00;98843.88;109458;1250;74772;-63
2023/11/25 06:39:14;;;;;;;10.70;6.30;;;;;;;3.94;100.00;98850.11;109480;1251;65781;-61
2023/11/25 06:41:48;;;;;;;10.60;7.10;;;;;;;4.10;100.00;98851.10;109454;1251;70247;-62
2023/11/25 06:44:17;;;;;;;11.20;6.80;;;;;;;4.25;100.00;98860.91;109406;1251;59672;-62
2023/11/25 06:46:44;;;;;;;15.00;9.00;;;;;;;4.40;100.00;98862.63;109477;1251;59048;-61
2023/11/25 06:49:15;;;;;;;14.10;10.90;;;;;;;4.51;100.00;98870.77;109431;1251;74865;-61
2023/11/25 06:51:42;;;;;;;14.10;10.80;;;;;;;4.62;100.00;98873.23;109555;1251;65973;-61
2023/11/25 06:54:10;;;;;;;11.60;7.50;;;;;;;4.74;100.00;98869.48;109490;1251;72762;-62
2023/11/25 06:56:41;;;;;;;9.80;6.00;;;;;;;4.86;100.00;98867.30;109409;1253;61792;-62
2023/11/25 06:59:08;;;;;;;10.80;6.40;;;;;;;5.03;100.00;98874.48;109453;1251;60083;-62
2023/11/25 07:01:37;;;;;;;9.10;5.50;;;;;;;5.24;100.00;98872.73;109483;1251;74695;-62
2023/11/25 07:04:05;;;;;;;8.40;5.90;;;;;;;5.48;100.00;98873.45;109489;1250;66215;-62
2023/11/25 07:06:32;;;;;;;9.70;5.80;;;;;;;5.77;100.00;98877.31;109429;1251;71479;-62
2023/11/25 07:09:00;;;;;;;9.20;5.50;;;;;;;6.10;100.00;98869.60;109373;1251;58949;-62
2023/11/25 07:11:30;;;;;;;9.00;6.00;;;;;;;6.39;100.00;98871.64;109422;1251;60092;-62
2023/11/25 07:13:58;;;;;;;10.40;6.50;;;;;;;6.65;100.00;98876.91;109280;1253;74773;-62
2023/11/25 07:16:25;;;;;;;8.60;5.50;;;;;;;6.85;100.00;98875.97;109257;1251;65965;-63
2023/11/25 07:18:53;;;;;;;9.50;6.00;;;;;;;7.02;100.00;98879.47;109441;1253;72724;-62
2023/11/25 07:21:23;;;;;;;8.20;5.00;;;;;;;7.15;100.00;98876.54;109430;1253;60122;-63
2023/11/25 07:23:51;;;;;;;8.60;5.80;;;;;;;7.25;100.00;98872.26;109464;1251;60101;-63
2023/11/25 07:26:19;;;;;;;8.60;5.50;;;;;;;7.35;100.00;98874.39;109490;1251;74686;-62
2023/11/25 07:28:47;;;;;;;8.50;5.70;;;;;;;7.39;100.00;98875.67;109404;1251;65968;-62
2023/11/25 07:31:14;;;;;;;9.80;5.10;;;;;;;7.42;100.00;98879.52;109430;1251;72369;-63
2023/11/25 07:33:43;;;;;;;10.80;6.00;;;;;;;7.46;100.00;98876.82;109442;1251;60214;-62
2023/11/25 07:36:11;;;;;;;9.20;5.90;;;;;;;7.53;100.00;98881.61;109466;1251;59118;-62
2023/11/25 07:38:38;;;;;;;9.70;6.00;;;;;;;7.68;100.00;98890.25;109456;1251;73490;-61
2023/11/25 07:41:06;;;;;;;10.30;6.20;;;;;;;7.89;100.00;98888.56;109404;1250;65671;-61
2023/11/25 07:43:34;;;;;;;8.80;5.80;;;;;;;8.15;100.00;98887.96;109382;1251;72777;-62
2023/11/25 07:46:02;;;;;;;8.90;6.80;;;;;;;8.41;100.00;98880.73;109434;1251;58960;-62
2023/11/25 07:48:29;;;;;;;10.10;6.20;;;;;;;8.75;100.00;98886.52;109299;1251;60254;-62
2023/11/25 07:50:58;;;;;;;10.50;6.70;;;;;;;9.04;100.00;98886.46;109422;1250;74778;-62
2023/11/25 07:53:26;;;;;;;10.60;6.70;;;;;;;9.28;100.00;98883.52;109514;1251;66811;-61
2023/11/25 07:55:54;;;;;;;9.80;6.40;;;;;;;9.46;100.00;98878.50;109487;1251;72710;-62
2023/11/25 07:58:22;;;;;;;9.30;6.40;;;;;;;9.57;100.00;98876.63;109451;1251;59280;-61
2023/11/25 08:00:50;;;;;;;9.50;6.30;;;;;;;9.60;100.00;98871.88;109437;1251;61169;-61
2023/11/25 08:03:18;;;;;;;9.80;5.80;;;;;;;9.60;100.00;98867.29;109460;1250;73625;-61
2023/11/25 08:05:46;;;;;;;6.60;4.50;;;;;;;9.57;100.00;98860.54;109480;1252;65492;-61
2023/11/25 08:08:13;;;;;;;10.60;5.70;;;;;;;9.51;100.00;98855.46;109427;1251;71681;-61
2023/11/25 08:10:41;;;;;;;7.30;4.50;;;;;;;9.45;100.00;98847.67;109406;1256;59405;-61
2023/11/25 08:13:09;;;;;;;10.10;5.20;;;;;;;9.37;100.00;98846.38;109457;1251;60080;-61
2023/11/25 08:15:36;;;;;;;7.60;4.60;;;;;;;9.27;100.00;98843.91;109449;1251;73775;-62
2023/11/25 08:18:04;;;;;;;7.90;5.50;;;;;;;9.19;100.00;98836.40;109484;1250;66635;-62
2023/11/25 08:20:33;;;;;;;8.20;5.00;;;;;;;9.09;100.00;98830.17;109423;1252;71461;-60
2023/11/25 08:23:01;;;;;;;10.20;5.40;;;;;;;8.97;100.00;98819.12;109462;1251;58965;-63
2023/11/25 08:25:28;;;;;;;10.00;6.30;;;;;;;8.87;100.00;98812.30;109448;1252;59365;-63
2023/11/25 08:27:56;;;;;;;8.20;5.70;;;;;;;8.78;100.00;98810.62;109500;1250;74723;-63
2023/11/25 08:30:24;;;;;;;7.90;5.60;;;;;;;8.68;100.00;98806.58;109455;1250;66774;-62
2023/11/25 08:32:52;;;;;;;8.40;5.60;;;;;;;8.58;100.00;98801.30;109377;1257;70704;-61
2023/11/25 08:35:19;;;;;;;10.80;6.70;;;;;;;8.48;100.00;98796.50;109487;1250;60107;-60
2023/11/25 08:37:47;;;;;;;10.90;7.30;;;;;;;8.39;100.00;98789.80;109515;1250;58972;-62
2023/11/25 08:40:16;;;;;;;15.30;9.80;;;;;;;8.30;100.00;98787.02;109306;1250;73888;-62
2023/11/25 08:42:45;;;;;;;15.20;11.00;;;;;;;8.16;100.00;98782.91;109469;1250;65870;-63
2023/11/25 08:45:13;;;;;;;13.90;9.60;;;;;;;7.90;100.00;98775.48;109474;1250;71658;-62
2023/11/25 08:47:42;;;;;;;19.70;12.30;;;;;;;7.64;100.00;98776.02;109451;1250;59647;-62
2023/11/25 08:50:15;;;;;;;15.40;8.20;;;;;;;7.41;100.00;98775.95;109461;1251;58982;-62
2023/11/25 08:52:44;;;;;;;13.70;8.30;;;;;;;7.29;100.00;98772.27;109257;1251;74751;-63
2023/11/25 08:55:17;;;;;;;12.70;8.10;;;;;;;7.21;100.00;98765.79;109237;1251;66334;-63
2023/11/25 08:57:45;;;;;;;15.20;9.50;;;;;;;7.16;100.00;98766.27;109433;1250;72613;-62
2023/11/25 09:00:19;;;;;;;18.40;11.70;;;;;;;7.09;100.00;98758.47;109424;1251;59319;-62
2023/11/25 09:02:50;;;;;;;14.20;9.50;;;;;;;6.96;100.00;98764.90;109394;1251;59179;-63
2023/11/25 09:05:21;;;;;;;16.40;10.00;;;;;;;6.85;100.00;98764.64;109465;1251;73436;-62
2023/11/25 09:07:51;;;;;;;16.70;10.00;;;;;;;6.73;100.00;98765.60;109420;1251;69646;-59
2023/11/25 09:10:21;;;;;;;11.80;9.20;;;;;;;6.62;100.00;98767.23;109494;1251;72807;-60
2023/11/25 09:12:52;;;;;;;18.60;13.50;;;;;;;6.53;100.00;98758.08;109407;1251;60279;-60
2023/11/25 09:15:20;;;;;;;18.30;12.50;;;;;;;6.46;100.00;98751.80;109440;1251;58910;-60
2023/11/25 09:17:48;;;;;;;19.00;13.00;;;;;;;6.37;100.00;98750.69;109446;1253;74812;-60
2023/11/25 09:20:16;;;;;;;18.90;14.00;;;;;;;6.23;100.00;98745.52;109440;1251;65884;-61
2023/11/25 09:22:44;;;;;;;18.10;13.10;;;;;;;6.23;100.00;98741.28;109463;1251;72711;-59
2023/11/25 09:25:12;;;;;;;19.40;14.10;;;;;;;6.18;100.00;98732.57;109478;1251;60885;-60
2023/11/25 09:27:41;;;;;;;20.60;15.50;;;;;;;6.13;100.00;98729.08;109465;1253;60081;-59
2023/11/25 09:30:11;;;;;;;19.20;14.30;;;;;;;6.07;100.00;98735.70;109462;1250;74694;-60
2023/11/25 09:32:44;;;;;;;21.30;15.70;;;;;;;6.04;100.00;98734.93;109489;1250;67058;-59
2023/11/25 09:35:12;;;;;;;20.50;15.90;;;;;;;6.00;100.00;98737.18;109294;1251;72885;-59
2023/11/25 09:37:41;;;;;;;18.30;14.30;;;;;;;6.00;100.00;98738.73;109417;1251;60930;-59
2023/11/25 09:40:15;;;;;;;19.20;14.40;;;;;;;6.02;100.00;98743.58;109268;1251;59333;-60
2023/11/25 09:42:44;;;;;;;20.50;13.90;;;;;;;6.02;100.00;98750.49;109280;1252;74727;-60
2023/11/25 09:45:12;;;;;;;23.10;16.30;;;;;;;6.02;100.00;98757.05;109456;1250;65744;-59
2023/11/25 09:47:43;;;;;;;23.30;17.70;;;;;;;5.99;100.00;98758.82;109389;1251;71509;-62
2023/11/25 09:50:13;;;;;;;21.00;15.70;;;;;;;5.93;100.00;98762.73;109432;1252;61110;-60
2023/11/25 09:52:51;;;;;;;27.30;19.00;;;;;;;5.88;100.00;98767.44;109442;1250;60038;-60
2023/11/25 09:55:22;;;;;;;31.10;20.30;;;;;;;5.82;100.00;98767.75;109300;1251;75265;-61
2023/11/25 09:57:58;;;;;;;30.50;20.20;;;;;;;5.76;100.00;98767.31;109455;1251;65829;-60
2023/11/25 10:00:27;;;;;;;22.00;15.30;;;;;;;5.73;100.00;98769.48;109251;1253;71465;-60
2023/11/25 10:02:55;;;;;;;21.90;14.70;;;;;;;5.72;100.00;98766.89;109426;1250;59035;-59
2023/11/25 10:05:23;;;;;;;18.60;13.50;;;;;;;5.71;100.00;98773.95;109242;1251;59212;-61
2023/11/25 10:07:51;;;;;;;19.60;13.30;;;;;;;5.74;100.00;98780.73;109426;1250;73675;-59
2023/11/25 10:10:23;;;;;;;43.20;28.00;;;;;;;5.77;100.00;98778.81;109456;1251;66978;-59
2023/11/25 10:12:52;;;;;;;28.10;18.90;;;;;;;5.76;100.00;98775.91;109490;1251;72433;-60
2023/11/25 10:15:21;;;;;;;23.40;15.30;;;;;;;5.75;100.00;98782.33;109245;1258;60174;-60
2023/11/25 10:17:49;;;;;;;19.80;13.90;;;;;;;5.72;100.00;98786.41;109469;1256;59088;-59
2023/11/25 10:20:22;;;;;;;23.30;13.90;;;;;;;5.69;100.00;98785.63;109546;1251;74886;-59
2023/11/25 10:22:53;;;;;;;35.40;19.90;;;;;;;5.66;100.00;98788.72;109482;1251;65997;-59
2023/11/25 10:25:21;;;;;;;28.90;18.40;;;;;;;5.65;100.00;98795.66;109423;1253;71608;-61
2023/11/25 10:27:51;;;;;;;29.50;19.00;;;;;;;5.64;100.00;98797.48;109433;1253;58893;-59
2023/11/25 10:30:20;;;;;;;18.00;12.30;;;;;;;5.62;100.00;98800.10;109333;1251;60045;-60
2023/11/25 10:32:49;;;;;;;13.50;9.40;;;;;;;5.60;100.00;98800.28;109264;1252;73437;-59
2023/11/25 10:35:18;;;;;;;14.00;9.30;;;;;;;5.58;100.00;98793.15;109435;1251;66968;-60
2023/11/25 10:37:46;;;;;;;13.20;9.40;;;;;;;5.57;100.00;98790.09;109470;1251;73172;-59
2023/11/25 10:40:16;;;;;;;19.00;9.40;;;;;;;5.57;100.00;98788.02;109443;1252;62342;-58
2023/11/25 10:42:47;;;;;;;16.50;10.20;;;;;;;5.56;100.00;98793.49;109508;1251;59425;-59
2023/11/25 10:45:15;;;;;;;13.70;9.50;;;;;;;5.57;100.00;98799.78;109447;1252;73908;-61
2023/11/25 10:47:43;;;;;;;15.00;9.40;;;;;;;5.59;100.00;98800.55;109255;1253;64948;-59
2023/11/25 10:50:13;;;;;;;15.40;8.40;;;;;;;5.63;100.00;98802.77;109424;1253;72749;-59
2023/11/25 10:52:44;;;;;;;12.70;8.30;;;;;;;5.65;100.00;98811.98;109477;1251;60951;-59
2023/11/25 10:55:12;;;;;;;;;;;;;;;5.64;100.00;98819.55;109219;1252;60405;-59
2023/11/25 10:57:40;;;;;;;16.20;9.30;;;;;;;5.64;100.00;98811.78;109431;1253;74741;-59
2023/11/25 11:00:12;;;;;;;15.40;8.60;;;;;;;5.58;100.00;98800.35;109403;1252;66869;-59
2023/11/25 11:02:43;;;;;;;;;;;;;;;5.53;100.00;98798.16;109443;1253;72760;-59
2023/11/25 11:05:12;;;;;;;16.10;10.20;;;;;;;5.48;100.00;98789.17;109362;1251;60327;-59
2023/11/25 11:07:44;;;;;;;16.80;9.70;;;;;;;5.43;100.00;98780.13;109316;1251;60117;-59
2023/11/25 11:10:14;;;;;;;13.50;8.70;;;;;;;5.37;100.00;98777.81;109156;1253;72503;-59
2023/11/25 11:12:45;;;;;;;15.50;8.50;;;;;;;5.31;100.00;98782.48;109382;1253;66985;-59
2023/11/25 11:15:16;;;;;;;13.90;8.50;;;;;;;5.27;100.00;98779.23;109264;1258;73113;-59
2023/11/25 11:18:10;;;;;;;12.30;8.60;;;;;;;5.23;100.00;98768.08;109427;1253;61045;-59
2023/11/25 11:20:46;;;;;;;16.70;9.70;;;;;;;5.20;100.00;98766.23;109368;1253;60134;-62
2023/11/25 11:23:22;;;;;;;20.00;11.90;;;;;;;5.19;100.00;98765.17;109294;1253;73543;-59
2023/11/25 11:26:13;;;;;;;16.10;9.50;;;;;;;5.19;100.00;98764.61;109420;1253;66991;-59